sensor_id;sensor_type;location;lat;lon;timestamp;pressure;altitude;pressure_sealevel;temperature
75273;BMP280;63869;52.344;16.928;2024-01-27T00:03:45;101117.06;;;5.72
75273;BMP280;63869;52.344;16.928;2024-01-27T08:38:52;101451.09;;;5.26
75273;BMP280;63869;52.344;16.928;2024-01-27T17:31:31;102250.03;;;5.84
75273;BMP280;63869;52.344;16.928;2024-01-27T17:33:57;102218.66;;;5.66
75273;BMP280;63869;52.344;16.928;2024-01-27T17:36:22;102223.78;;;5.58
75273;BMP280;63869;52.344;16.928;2024-01-27T17:38:48;102249.78;;;5.77
75273;BMP280;63869;52.344;16.928;2024-01-27T17:41:13;102223.09;;;5.61
75273;BMP280;63869;52.344;16.928;2024-01-27T17:43:39;102279.69;;;5.86
75273;BMP280;63869;52.344;16.928;2024-01-27T17:46:04;102233.69;;;5.61
75273;BMP280;63869;52.344;16.928;2024-01-27T17:48:29;102232.53;;;5.71
75273;BMP280;63869;52.344;16.928;2024-01-27T17:50:55;102279.84;;;6.02
75273;BMP280;63869;52.344;16.928;2024-01-27T17:53:21;102253.78;;;5.95
75273;BMP280;63869;52.344;16.928;2024-01-27T17:55:46;102276.16;;;6.07
75273;BMP280;63869;52.344;16.928;2024-01-27T17:58:12;102282.16;;;6.04
75273;BMP280;63869;52.344;16.928;2024-01-27T18:00:38;102242.50;;;5.74
75273;BMP280;63869;52.344;16.928;2024-01-27T18:03:04;102257.22;;;5.84
75273;BMP280;63869;52.344;16.928;2024-01-27T18:05:29;102274.84;;;6.01
75273;BMP280;63869;52.344;16.928;2024-01-27T18:07:55;102291.56;;;6.13
75273;BMP280;63869;52.344;16.928;2024-01-27T18:10:20;102251.34;;;5.90
75273;BMP280;63869;52.344;16.928;2024-01-27T18:12:45;102259.09;;;5.95
75273;BMP280;63869;52.344;16.928;2024-01-27T18:15:12;102259.88;;;5.96
75273;BMP280;63869;52.344;16.928;2024-01-27T18:17:38;102255.88;;;5.90
75273;BMP280;63869;52.344;16.928;2024-01-27T18:20:04;102283.03;;;6.08
75273;BMP280;63869;52.344;16.928;2024-01-27T18:22:29;102267.97;;;5.87
75273;BMP280;63869;52.344;16.928;2024-01-27T18:24:54;102301.41;;;6.13
75273;BMP280;63869;52.344;16.928;2024-01-27T18:27:22;102291.75;;;6.08
75273;BMP280;63869;52.344;16.928;2024-01-27T18:29:47;102311.81;;;6.18
75273;BMP280;63869;52.344;16.928;2024-01-27T18:32:12;102252.09;;;5.79
75273;BMP280;63869;52.344;16.928;2024-01-27T18:34:38;102306.38;;;6.14
75273;BMP280;63869;52.344;16.928;2024-01-27T18:37:03;102276.59;;;5.96
75273;BMP280;63869;52.344;16.928;2024-01-27T18:39:29;102290.00;;;6.00
75273;BMP280;63869;52.344;16.928;2024-01-27T18:41:57;102300.31;;;6.02
75273;BMP280;63869;52.344;16.928;2024-01-27T18:44:26;102263.75;;;5.86
75273;BMP280;63869;52.344;16.928;2024-01-27T18:46:51;102319.91;;;6.21
75273;BMP280;63869;52.344;16.928;2024-01-27T18:49:17;102342.72;;;6.35
75273;BMP280;63869;52.344;16.928;2024-01-27T18:51:42;102303.44;;;6.16
75273;BMP280;63869;52.344;16.928;2024-01-27T18:54:09;102345.72;;;6.33
75273;BMP280;63869;52.344;16.928;2024-01-27T18:56:36;102327.66;;;6.26
75273;BMP280;63869;52.344;16.928;2024-01-27T18:59:02;102339.53;;;6.41
75273;BMP280;63869;52.344;16.928;2024-01-27T19:01:27;102349.81;;;6.43
75273;BMP280;63869;52.344;16.928;2024-01-27T19:03:52;102346.06;;;6.44
75273;BMP280;63869;52.344;16.928;2024-01-27T19:06:18;102324.22;;;6.26
75273;BMP280;63869;52.344;16.928;2024-01-27T19:08:43;102318.13;;;6.25
75273;BMP280;63869;52.344;16.928;2024-01-27T19:11:09;102343.28;;;6.40
75273;BMP280;63869;52.344;16.928;2024-01-27T19:13:34;102314.69;;;6.13
75273;BMP280;63869;52.344;16.928;2024-01-27T19:16:00;102336.50;;;6.31
75273;BMP280;63869;52.344;16.928;2024-01-27T19:18:25;102318.09;;;6.13
75273;BMP280;63869;52.344;16.928;2024-01-27T19:20:52;102351.91;;;6.37
75273;BMP280;63869;52.344;16.928;2024-01-27T19:23:17;102328.97;;;6.20
75273;BMP280;63869;52.344;16.928;2024-01-27T19:25:43;102343.59;;;6.26
75273;BMP280;63869;52.344;16.928;2024-01-27T19:28:08;102333.84;;;6.18
75273;BMP280;63869;52.344;16.928;2024-01-27T19:30:34;102338.56;;;6.13
75273;BMP280;63869;52.344;16.928;2024-01-27T19:32:59;102342.50;;;6.15
75273;BMP280;63869;52.344;16.928;2024-01-27T19:35:25;102318.66;;;6.07
75273;BMP280;63869;52.344;16.928;2024-01-27T19:37:50;102356.22;;;6.17
75273;BMP280;63869;52.344;16.928;2024-01-27T19:40:15;102340.00;;;6.10
75273;BMP280;63869;52.344;16.928;2024-01-27T19:42:42;102381.47;;;6.36
75273;BMP280;63869;52.344;16.928;2024-01-27T19:45:09;102362.31;;;6.30
75273;BMP280;63869;52.344;16.928;2024-01-27T19:47:37;102349.44;;;6.20
75273;BMP280;63869;52.344;16.928;2024-01-27T19:50:02;102350.53;;;6.19
75273;BMP280;63869;52.344;16.928;2024-01-27T19:52:29;102349.66;;;6.15
75273;BMP280;63869;52.344;16.928;2024-01-27T19:54:54;102358.63;;;6.22
75273;BMP280;63869;52.344;16.928;2024-01-27T19:57:20;102379.34;;;6.29
75273;BMP280;63869;52.344;16.928;2024-01-27T19:59:45;102405.84;;;6.50
75273;BMP280;63869;52.344;16.928;2024-01-27T20:02:11;102378.03;;;6.35
75273;BMP280;63869;52.344;16.928;2024-01-27T20:04:38;102398.41;;;6.31
75273;BMP280;63869;52.344;16.928;2024-01-27T20:07:03;102399.41;;;6.39
75273;BMP280;63869;52.344;16.928;2024-01-27T20:09:29;102390.53;;;6.35
75273;BMP280;63869;52.344;16.928;2024-01-27T20:11:54;102430.09;;;6.60
75273;BMP280;63869;52.344;16.928;2024-01-27T20:14:20;102399.97;;;6.44
75273;BMP280;63869;52.344;16.928;2024-01-27T20:16:46;102378.69;;;6.32
75273;BMP280;63869;52.344;16.928;2024-01-27T20:19:13;102412.59;;;6.59
75273;BMP280;63869;52.344;16.928;2024-01-27T20:21:39;102417.28;;;6.63
75273;BMP280;63869;52.344;16.928;2024-01-27T20:24:05;102405.72;;;6.46
75273;BMP280;63869;52.344;16.928;2024-01-27T20:26:31;102407.59;;;6.46
75273;BMP280;63869;52.344;16.928;2024-01-27T20:28:56;102432.44;;;6.50
75273;BMP280;63869;52.344;16.928;2024-01-27T20:31:21;102458.50;;;6.69
75273;BMP280;63869;52.344;16.928;2024-01-27T20:33:47;102446.81;;;6.61
75273;BMP280;63869;52.344;16.928;2024-01-27T20:36:12;102422.56;;;6.50
75273;BMP280;63869;52.344;16.928;2024-01-27T20:38:38;102430.53;;;6.50
75273;BMP280;63869;52.344;16.928;2024-01-27T20:41:04;102441.84;;;6.59
75273;BMP280;63869;52.344;16.928;2024-01-27T20:43:29;102431.00;;;6.52
75273;BMP280;63869;52.344;16.928;2024-01-27T20:45:55;102427.88;;;6.50
75273;BMP280;63869;52.344;16.928;2024-01-27T20:48:20;102438.53;;;6.63
75273;BMP280;63869;52.344;16.928;2024-01-27T20:50:46;102449.47;;;6.61
75273;BMP280;63869;52.344;16.928;2024-01-27T20:53:11;102480.91;;;6.80
75273;BMP280;63869;52.344;16.928;2024-01-27T20:55:37;102449.38;;;6.57
75273;BMP280;63869;52.344;16.928;2024-01-27T20:58:02;102461.34;;;6.64
75273;BMP280;63869;52.344;16.928;2024-01-27T21:00:28;102475.22;;;6.69
75273;BMP280;63869;52.344;16.928;2024-01-27T21:02:53;102451.59;;;6.55
75273;BMP280;63869;52.344;16.928;2024-01-27T21:05:18;102479.44;;;6.70
75273;BMP280;63869;52.344;16.928;2024-01-27T21:07:44;102465.44;;;6.61
75273;BMP280;63869;52.344;16.928;2024-01-27T21:10:09;102471.34;;;6.67
75273;BMP280;63869;52.344;16.928;2024-01-27T21:12:35;102471.34;;;6.67
75273;BMP280;63869;52.344;16.928;2024-01-27T21:15:01;102501.94;;;6.85
75273;BMP280;63869;52.344;16.928;2024-01-27T21:17:27;102461.53;;;6.58
75273;BMP280;63869;52.344;16.928;2024-01-27T21:19:52;102479.75;;;6.69
75273;BMP280;63869;52.344;16.928;2024-01-27T21:22:19;102497.84;;;6.87
75273;BMP280;63869;52.344;16.928;2024-01-27T21:24:45;102449.03;;;6.59
75273;BMP280;63869;52.344;16.928;2024-01-27T21:27:10;102481.84;;;6.75
75273;BMP280;63869;52.344;16.928;2024-01-27T21:29:35;102465.34;;;6.57
75273;BMP280;63869;52.344;16.928;2024-01-27T21:32:01;102485.53;;;6.71
75273;BMP280;63869;52.344;16.928;2024-01-27T21:34:26;102504.47;;;6.69
75273;BMP280;63869;52.344;16.928;2024-01-27T21:36:52;102517.19;;;6.76
75273;BMP280;63869;52.344;16.928;2024-01-27T21:39:17;102493.00;;;6.56
75273;BMP280;63869;52.344;16.928;2024-01-27T21:41:43;102527.28;;;6.70
75273;BMP280;63869;52.344;16.928;2024-01-27T21:44:08;102497.09;;;6.54
75273;BMP280;63869;52.344;16.928;2024-01-27T21:46:33;102480.09;;;6.46
75273;BMP280;63869;52.344;16.928;2024-01-27T21:48:59;102519.13;;;6.54
75273;BMP280;63869;52.344;16.928;2024-01-27T21:51:24;102491.28;;;6.40
75273;BMP280;63869;52.344;16.928;2024-01-27T21:53:49;102516.03;;;6.52
75273;BMP280;63869;52.344;16.928;2024-01-27T21:56:15;102512.94;;;6.50
75273;BMP280;63869;52.344;16.928;2024-01-27T21:58:40;102505.81;;;6.42
75273;BMP280;63869;52.344;16.928;2024-01-27T22:01:05;102546.09;;;6.65
75273;BMP280;63869;52.344;16.928;2024-01-27T22:03:31;102546.53;;;6.67
75273;BMP280;63869;52.344;16.928;2024-01-27T22:06:03;102539.34;;;6.68
75273;BMP280;63869;52.344;16.928;2024-01-27T22:08:31;102551.53;;;6.69
75273;BMP280;63869;52.344;16.928;2024-01-27T22:10:56;102545.94;;;6.61
75273;BMP280;63869;52.344;16.928;2024-01-27T22:13:21;102534.09;;;6.59
75273;BMP280;63869;52.344;16.928;2024-01-27T22:15:47;102539.22;;;6.64
75273;BMP280;63869;52.344;16.928;2024-01-27T22:18:13;102542.09;;;6.71
75273;BMP280;63869;52.344;16.928;2024-01-27T22:20:38;102534.81;;;6.68
75273;BMP280;63869;52.344;16.928;2024-01-27T22:23:05;102547.38;;;6.80
75273;BMP280;63869;52.344;16.928;2024-01-27T22:25:30;102540.78;;;6.65
75273;BMP280;63869;52.344;16.928;2024-01-27T22:27:55;102542.22;;;6.63
75273;BMP280;63869;52.344;16.928;2024-01-27T22:30:21;102521.56;;;6.47
75273;BMP280;63869;52.344;16.928;2024-01-27T22:32:46;102542.03;;;6.47
75273;BMP280;63869;52.344;16.928;2024-01-27T22:35:12;102536.91;;;6.42
75273;BMP280;63869;52.344;16.928;2024-01-27T22:37:37;102563.41;;;6.50
75273;BMP280;63869;52.344;16.928;2024-01-27T22:40:02;102567.63;;;6.51
75273;BMP280;63869;52.344;16.928;2024-01-27T22:42:28;102569.31;;;6.56
75273;BMP280;63869;52.344;16.928;2024-01-27T22:44:55;102577.75;;;6.58
75273;BMP280;63869;52.344;16.928;2024-01-27T22:47:21;102575.16;;;6.49
75273;BMP280;63869;52.344;16.928;2024-01-27T22:49:46;102584.47;;;6.55
75273;BMP280;63869;52.344;16.928;2024-01-27T22:52:11;102578.91;;;6.48
75273;BMP280;63869;52.344;16.928;2024-01-27T22:54:37;102571.91;;;6.44
75273;BMP280;63869;52.344;16.928;2024-01-27T22:57:03;102562.72;;;6.41
75273;BMP280;63869;52.344;16.928;2024-01-27T22:59:28;102573.06;;;6.34
75273;BMP280;63869;52.344;16.928;2024-01-27T23:01:54;102591.69;;;6.34
75273;BMP280;63869;52.344;16.928;2024-01-27T23:04:19;102589.53;;;6.27
75273;BMP280;63869;52.344;16.928;2024-01-27T23:06:44;102586.50;;;6.17
75273;BMP280;63869;52.344;16.928;2024-01-27T23:09:10;102595.88;;;6.14
75273;BMP280;63869;52.344;16.928;2024-01-27T23:11:35;102598.84;;;6.13
75273;BMP280;63869;52.344;16.928;2024-01-27T23:14:02;102578.16;;;5.97
75273;BMP280;63869;52.344;16.928;2024-01-27T23:16:27;102591.97;;;6.12
75273;BMP280;63869;52.344;16.928;2024-01-27T23:18:53;102595.88;;;6.14
75273;BMP280;63869;52.344;16.928;2024-01-27T23:21:18;102600.34;;;6.22
75273;BMP280;63869;52.344;16.928;2024-01-27T23:23:44;102591.81;;;6.17
75273;BMP280;63869;52.344;16.928;2024-01-27T23:26:09;102586.16;;;6.18
75273;BMP280;63869;52.344;16.928;2024-01-27T23:28:35;102582.63;;;6.06
75273;BMP280;63869;52.344;16.928;2024-01-27T23:31:01;102596.38;;;6.08
75273;BMP280;63869;52.344;16.928;2024-01-27T23:33:27;102585.50;;;6.01
75273;BMP280;63869;52.344;16.928;2024-01-27T23:35:53;102603.56;;;6.07
75273;BMP280;63869;52.344;16.928;2024-01-27T23:38:20;102601.44;;;6.01
75273;BMP280;63869;52.344;16.928;2024-01-27T23:40:46;102588.47;;;5.99
75273;BMP280;63869;52.344;16.928;2024-01-27T23:43:11;102586.91;;;5.98
75273;BMP280;63869;52.344;16.928;2024-01-27T23:45:37;102600.59;;;6.09
75273;BMP280;63869;52.344;16.928;2024-01-27T23:48:02;102590.03;;;6.00
75273;BMP280;63869;52.344;16.928;2024-01-27T23:50:28;102593.72;;;6.08
75273;BMP280;63869;52.344;16.928;2024-01-27T23:52:53;102597.00;;;6.05
75273;BMP280;63869;52.344;16.928;2024-01-27T23:55:19;102602.88;;;6.19
75273;BMP280;63869;52.344;16.928;2024-01-27T23:57:46;102606.97;;;6.16
